sensor_id;sensor_type;location;lat;lon;timestamp;temperature;humidity
43647;DHT22;56152;49.996;18.980;2023-08-08T00:01:54;13.40;99.40
43647;DHT22;56152;49.996;18.980;2023-08-08T00:06:56;13.40;99.30
43647;DHT22;56152;49.996;18.980;2023-08-08T00:12:01;13.40;99.40
43647;DHT22;56152;49.996;18.980;2023-08-08T00:17:05;13.40;99.40
43647;DHT22;56152;49.996;18.980;2023-08-08T00:22:06;13.30;99.30
43647;DHT22;56152;49.996;18.980;2023-08-08T00:27:09;13.30;99.30
43647;DHT22;56152;49.996;18.980;2023-08-08T00:32:13;13.30;99.40
43647;DHT22;56152;49.996;18.980;2023-08-08T00:37:15;13.30;99.40
43647;DHT22;56152;49.996;18.980;2023-08-08T00:42:17;13.30;99.40
43647;DHT22;56152;49.996;18.980;2023-08-08T00:47:21;13.30;99.40
43647;DHT22;56152;49.996;18.980;2023-08-08T00:52:24;13.30;99.40
43647;DHT22;56152;49.996;18.980;2023-08-08T00:57:27;13.20;99.40
43647;DHT22;56152;49.996;18.980;2023-08-08T01:02:33;13.20;99.70
43647;DHT22;56152;49.996;18.980;2023-08-08T01:07:38;13.10;99.30
43647;DHT22;56152;49.996;18.980;2023-08-08T01:12:53;13.10;99.30
43647;DHT22;56152;49.996;18.980;2023-08-08T01:17:59;13.10;99.40
43647;DHT22;56152;49.996;18.980;2023-08-08T01:23:09;13.00;99.70
43647;DHT22;56152;49.996;18.980;2023-08-08T01:28:14;13.00;99.40
43647;DHT22;56152;49.996;18.980;2023-08-08T01:33:16;13.00;99.40
43647;DHT22;56152;49.996;18.980;2023-08-08T01:38:23;13.00;99.40
43647;DHT22;56152;49.996;18.980;2023-08-08T01:43:29;12.90;99.40
43647;DHT22;56152;49.996;18.980;2023-08-08T01:48:33;12.90;99.40
43647;DHT22;56152;49.996;18.980;2023-08-08T01:53:35;12.80;99.50
43647;DHT22;56152;49.996;18.980;2023-08-08T01:58:39;12.70;99.50
43647;DHT22;56152;49.996;18.980;2023-08-08T02:03:41;12.70;99.50
43647;DHT22;56152;49.996;18.980;2023-08-08T02:08:44;12.60;99.50
43647;DHT22;56152;49.996;18.980;2023-08-08T02:13:47;12.60;99.50
43647;DHT22;56152;49.996;18.980;2023-08-08T02:18:49;12.60;99.50
43647;DHT22;56152;49.996;18.980;2023-08-08T02:23:51;12.50;99.40
43647;DHT22;56152;49.996;18.980;2023-08-08T02:28:56;12.40;99.40
43647;DHT22;56152;49.996;18.980;2023-08-08T02:33:57;12.40;99.40
43647;DHT22;56152;49.996;18.980;2023-08-08T02:38:59;12.40;99.40
43647;DHT22;56152;49.996;18.980;2023-08-08T02:44:04;12.30;99.40
43647;DHT22;56152;49.996;18.980;2023-08-08T02:49:06;12.30;99.70
43647;DHT22;56152;49.996;18.980;2023-08-08T02:54:10;12.30;99.40
43647;DHT22;56152;49.996;18.980;2023-08-08T02:59:14;12.30;99.40
43647;DHT22;56152;49.996;18.980;2023-08-08T03:04:17;12.20;99.30
43647;DHT22;56152;49.996;18.980;2023-08-08T03:09:19;12.20;99.30
43647;DHT22;56152;49.996;18.980;2023-08-08T03:14:22;12.30;99.30
43647;DHT22;56152;49.996;18.980;2023-08-08T03:19:25;12.20;99.30
43647;DHT22;56152;49.996;18.980;2023-08-08T03:24:27;12.20;99.20
43647;DHT22;56152;49.996;18.980;2023-08-08T03:29:33;12.10;99.20
43647;DHT22;56152;49.996;18.980;2023-08-08T03:34:35;12.20;99.20
43647;DHT22;56152;49.996;18.980;2023-08-08T03:39:37;12.20;99.20
43647;DHT22;56152;49.996;18.980;2023-08-08T03:44:43;12.20;99.10
43647;DHT22;56152;49.996;18.980;2023-08-08T03:49:45;12.30;99.10
43647;DHT22;56152;49.996;18.980;2023-08-08T03:54:48;12.30;99.00
43647;DHT22;56152;49.996;18.980;2023-08-08T03:59:52;12.30;98.90
43647;DHT22;56152;49.996;18.980;2023-08-08T04:04:56;12.30;98.90
43647;DHT22;56152;49.996;18.980;2023-08-08T04:10:06;12.40;99.00
43647;DHT22;56152;49.996;18.980;2023-08-08T04:15:10;12.40;99.00
43647;DHT22;56152;49.996;18.980;2023-08-08T04:20:13;12.40;98.90
43647;DHT22;56152;49.996;18.980;2023-08-08T04:25:15;12.40;98.90
43647;DHT22;56152;49.996;18.980;2023-08-08T04:30:19;12.40;98.80
43647;DHT22;56152;49.996;18.980;2023-08-08T04:35:21;12.50;98.80
43647;DHT22;56152;49.996;18.980;2023-08-08T04:40:23;12.50;98.80
43647;DHT22;56152;49.996;18.980;2023-08-08T04:45:36;12.50;98.70
43647;DHT22;56152;49.996;18.980;2023-08-08T04:50:41;12.50;98.70
43647;DHT22;56152;49.996;18.980;2023-08-08T04:55:46;12.50;98.70
43647;DHT22;56152;49.996;18.980;2023-08-08T05:00:52;12.50;98.70
43647;DHT22;56152;49.996;18.980;2023-08-08T05:05:55;12.50;98.60
43647;DHT22;56152;49.996;18.980;2023-08-08T05:10:59;12.50;98.50
43647;DHT22;56152;49.996;18.980;2023-08-08T05:16:04;12.60;98.50
43647;DHT22;56152;49.996;18.980;2023-08-08T05:21:07;12.60;98.40
43647;DHT22;56152;49.996;18.980;2023-08-08T05:26:09;12.80;98.40
43647;DHT22;56152;49.996;18.980;2023-08-08T05:31:13;12.70;98.30
43647;DHT22;56152;49.996;18.980;2023-08-08T05:36:16;12.80;98.20
43647;DHT22;56152;49.996;18.980;2023-08-08T05:41:18;12.80;98.10
43647;DHT22;56152;49.996;18.980;2023-08-08T05:46:21;12.90;98.10
43647;DHT22;56152;49.996;18.980;2023-08-08T05:51:28;13.20;98.00
43647;DHT22;56152;49.996;18.980;2023-08-08T05:56:35;13.80;97.40
43647;DHT22;56152;49.996;18.980;2023-08-08T06:01:42;14.50;96.60
43647;DHT22;56152;49.996;18.980;2023-08-08T06:06:45;15.10;95.90
43647;DHT22;56152;49.996;18.980;2023-08-08T06:11:49;15.50;95.20
43647;DHT22;56152;49.996;18.980;2023-08-08T06:16:53;15.80;94.80
43647;DHT22;56152;49.996;18.980;2023-08-08T06:21:55;16.00;94.10
43647;DHT22;56152;49.996;18.980;2023-08-08T06:26:59;16.30;93.60
43647;DHT22;56152;49.996;18.980;2023-08-08T06:32:05;16.40;93.40
43647;DHT22;56152;49.996;18.980;2023-08-08T06:37:07;16.80;92.70
43647;DHT22;56152;49.996;18.980;2023-08-08T06:42:09;16.60;92.50
43647;DHT22;56152;49.996;18.980;2023-08-08T06:47:15;16.70;92.30
43647;DHT22;56152;49.996;18.980;2023-08-08T06:52:21;17.00;92.00
43647;DHT22;56152;49.996;18.980;2023-08-08T06:57:23;17.20;91.60
43647;DHT22;56152;49.996;18.980;2023-08-08T07:02:27;17.50;91.20
43647;DHT22;56152;49.996;18.980;2023-08-08T07:07:29;17.80;90.30
43647;DHT22;56152;49.996;18.980;2023-08-08T07:12:34;17.90;90.10
43647;DHT22;56152;49.996;18.980;2023-08-08T07:17:38;18.10;89.30
43647;DHT22;56152;49.996;18.980;2023-08-08T07:22:40;18.30;88.40
43647;DHT22;56152;49.996;18.980;2023-08-08T07:27:42;18.30;87.90
43647;DHT22;56152;49.996;18.980;2023-08-08T07:32:46;18.40;87.00
43647;DHT22;56152;49.996;18.980;2023-08-08T07:37:49;18.50;86.60
43647;DHT22;56152;49.996;18.980;2023-08-08T07:42:51;18.60;85.50
43647;DHT22;56152;49.996;18.980;2023-08-08T07:47:55;18.80;85.50
43647;DHT22;56152;49.996;18.980;2023-08-08T07:52:57;19.10;84.60
43647;DHT22;56152;49.996;18.980;2023-08-08T07:58:00;19.30;83.00
43647;DHT22;56152;49.996;18.980;2023-08-08T08:03:04;19.50;82.10
43647;DHT22;56152;49.996;18.980;2023-08-08T08:08:06;19.80;81.10
43647;DHT22;56152;49.996;18.980;2023-08-08T08:13:08;19.60;80.60
43647;DHT22;56152;49.996;18.980;2023-08-08T08:18:15;19.10;80.10
43647;DHT22;56152;49.996;18.980;2023-08-08T08:23:17;18.40;81.40
43647;DHT22;56152;49.996;18.980;2023-08-08T08:28:20;18.30;82.80
43647;DHT22;56152;49.996;18.980;2023-08-08T08:33:25;18.80;81.80
43647;DHT22;56152;49.996;18.980;2023-08-08T08:38:27;19.20;80.70
43647;DHT22;56152;49.996;18.980;2023-08-08T08:43:30;19.40;80.20
43647;DHT22;56152;49.996;18.980;2023-08-08T08:48:35;19.80;78.50
43647;DHT22;56152;49.996;18.980;2023-08-08T08:53:40;19.70;77.70
43647;DHT22;56152;49.996;18.980;2023-08-08T08:58:47;19.60;77.60
43647;DHT22;56152;49.996;18.980;2023-08-08T09:03:52;19.70;77.90
43647;DHT22;56152;49.996;18.980;2023-08-08T09:08:56;20.20;77.50
43647;DHT22;56152;49.996;18.980;2023-08-08T09:13:58;20.30;75.70
43647;DHT22;56152;49.996;18.980;2023-08-08T09:19:05;19.50;76.30
43647;DHT22;56152;49.996;18.980;2023-08-08T09:24:07;18.80;77.60
43647;DHT22;56152;49.996;18.980;2023-08-08T09:29:11;18.10;79.50
43647;DHT22;56152;49.996;18.980;2023-08-08T09:34:16;17.90;80.70
43647;DHT22;56152;49.996;18.980;2023-08-08T09:39:18;17.80;81.50
43647;DHT22;56152;49.996;18.980;2023-08-08T09:44:23;17.80;81.80
43647;DHT22;56152;49.996;18.980;2023-08-08T09:49:28;18.30;81.00
43647;DHT22;56152;49.996;18.980;2023-08-08T09:54:34;18.40;80.00
43647;DHT22;56152;49.996;18.980;2023-08-08T09:59:38;18.40;79.60
43647;DHT22;56152;49.996;18.980;2023-08-08T10:04:44;18.20;79.30
43647;DHT22;56152;49.996;18.980;2023-08-08T10:09:46;17.80;79.70
43647;DHT22;56152;49.996;18.980;2023-08-08T10:14:50;17.60;80.40
43647;DHT22;56152;49.996;18.980;2023-08-08T10:19:54;17.60;80.60
43647;DHT22;56152;49.996;18.980;2023-08-08T10:24:57;18.00;80.10
43647;DHT22;56152;49.996;18.980;2023-08-08T10:30:06;18.80;78.20
43647;DHT22;56152;49.996;18.980;2023-08-08T10:35:12;18.70;76.60
43647;DHT22;56152;49.996;18.980;2023-08-08T10:40:17;18.00;77.00
43647;DHT22;56152;49.996;18.980;2023-08-08T10:45:29;17.40;79.30
43647;DHT22;56152;49.996;18.980;2023-08-08T10:50:38;17.30;81.30
43647;DHT22;56152;49.996;18.980;2023-08-08T10:55:42;17.70;80.80
43647;DHT22;56152;49.996;18.980;2023-08-08T11:00:49;17.70;80.10
43647;DHT22;56152;49.996;18.980;2023-08-08T11:05:54;17.60;79.90
43647;DHT22;56152;49.996;18.980;2023-08-08T11:10:56;17.40;79.80
43647;DHT22;56152;49.996;18.980;2023-08-08T11:16:01;17.20;80.70
43647;DHT22;56152;49.996;18.980;2023-08-08T11:21:11;17.00;81.90
43647;DHT22;56152;49.996;18.980;2023-08-08T11:26:16;16.80;82.40
43647;DHT22;56152;49.996;18.980;2023-08-08T11:31:21;16.70;83.20
43647;DHT22;56152;49.996;18.980;2023-08-08T11:36:26;17.00;82.90
43647;DHT22;56152;49.996;18.980;2023-08-08T11:41:31;17.20;82.80
43647;DHT22;56152;49.996;18.980;2023-08-08T11:46:34;18.00;80.80
43647;DHT22;56152;49.996;18.980;2023-08-08T11:51:38;18.50;78.40
43647;DHT22;56152;49.996;18.980;2023-08-08T11:56:40;18.20;77.90
43647;DHT22;56152;49.996;18.980;2023-08-08T12:01:43;17.90;78.60
43647;DHT22;56152;49.996;18.980;2023-08-08T12:06:47;18.00;78.00
43647;DHT22;56152;49.996;18.980;2023-08-08T12:11:53;18.10;77.20
43647;DHT22;56152;49.996;18.980;2023-08-08T12:16:56;18.10;76.60
43647;DHT22;56152;49.996;18.980;2023-08-08T12:21:59;17.90;76.40
43647;DHT22;56152;49.996;18.980;2023-08-08T12:27:01;17.90;76.40
43647;DHT22;56152;49.996;18.980;2023-08-08T12:32:06;18.50;75.10
43647;DHT22;56152;49.996;18.980;2023-08-08T12:37:17;18.50;74.70
43647;DHT22;56152;49.996;18.980;2023-08-08T12:42:19;18.80;74.80
43647;DHT22;56152;49.996;18.980;2023-08-08T12:47:21;19.10;74.60
43647;DHT22;56152;49.996;18.980;2023-08-08T12:52:28;19.00;74.40
43647;DHT22;56152;49.996;18.980;2023-08-08T12:57:33;19.30;74.50
43647;DHT22;56152;49.996;18.980;2023-08-08T13:02:37;19.60;73.00
43647;DHT22;56152;49.996;18.980;2023-08-08T13:07:41;19.40;72.80
43647;DHT22;56152;49.996;18.980;2023-08-08T13:12:43;19.20;72.90
43647;DHT22;56152;49.996;18.980;2023-08-08T13:17:45;19.00;73.70
43647;DHT22;56152;49.996;18.980;2023-08-08T13:22:49;18.80;74.40
43647;DHT22;56152;49.996;18.980;2023-08-08T13:27:51;19.00;74.10
43647;DHT22;56152;49.996;18.980;2023-08-08T13:32:53;19.20;74.00
43647;DHT22;56152;49.996;18.980;2023-08-08T13:37:56;19.30;73.80
43647;DHT22;56152;49.996;18.980;2023-08-08T13:42:59;19.40;72.60
43647;DHT22;56152;49.996;18.980;2023-08-08T13:48:01;19.20;72.60
43647;DHT22;56152;49.996;18.980;2023-08-08T13:53:11;19.10;72.90
43647;DHT22;56152;49.996;18.980;2023-08-08T13:58:16;18.90;73.00
43647;DHT22;56152;49.996;18.980;2023-08-08T14:03:19;18.80;73.30
43647;DHT22;56152;49.996;18.980;2023-08-08T14:08:24;18.80;73.30
43647;DHT22;56152;49.996;18.980;2023-08-08T14:13:27;18.80;73.20
43647;DHT22;56152;49.996;18.980;2023-08-08T14:18:34;18.80;73.50
43647;DHT22;56152;49.996;18.980;2023-08-08T14:23:41;18.70;73.60
43647;DHT22;56152;49.996;18.980;2023-08-08T14:28:44;18.70;73.20
43647;DHT22;56152;49.996;18.980;2023-08-08T14:33:46;18.70;73.30
43647;DHT22;56152;49.996;18.980;2023-08-08T14:38:50;18.50;73.20
43647;DHT22;56152;49.996;18.980;2023-08-08T14:43:55;18.20;73.50
43647;DHT22;56152;49.996;18.980;2023-08-08T14:49:00;17.80;74.50
43647;DHT22;56152;49.996;18.980;2023-08-08T14:54:25;17.50;76.00
43647;DHT22;56152;49.996;18.980;2023-08-08T14:59:34;17.10;77.50
43647;DHT22;56152;49.996;18.980;2023-08-08T15:04:36;17.10;79.10
43647;DHT22;56152;49.996;18.980;2023-08-08T15:09:41;17.40;78.80
43647;DHT22;56152;49.996;18.980;2023-08-08T15:14:43;17.60;78.30
43647;DHT22;56152;49.996;18.980;2023-08-08T15:19:46;17.70;78.00
43647;DHT22;56152;49.996;18.980;2023-08-08T15:25:01;17.70;77.50
43647;DHT22;56152;49.996;18.980;2023-08-08T15:30:05;17.70;77.30
43647;DHT22;56152;49.996;18.980;2023-08-08T15:35:08;17.70;77.20
43647;DHT22;56152;49.996;18.980;2023-08-08T15:40:13;17.60;77.50
43647;DHT22;56152;49.996;18.980;2023-08-08T15:45:16;17.60;77.40
43647;DHT22;56152;49.996;18.980;2023-08-08T15:50:20;17.70;76.90
43647;DHT22;56152;49.996;18.980;2023-08-08T15:55:31;17.70;76.50
43647;DHT22;56152;49.996;18.980;2023-08-08T16:00:36;17.70;77.00
43647;DHT22;56152;49.996;18.980;2023-08-08T16:05:41;17.80;77.20
43647;DHT22;56152;49.996;18.980;2023-08-08T16:10:55;17.80;77.30
43647;DHT22;56152;49.996;18.980;2023-08-08T16:15:58;17.70;77.30
43647;DHT22;56152;49.996;18.980;2023-08-08T16:21:01;17.40;78.00
43647;DHT22;56152;49.996;18.980;2023-08-08T16:26:07;17.40;79.00
43647;DHT22;56152;49.996;18.980;2023-08-08T16:31:09;17.50;79.00
43647;DHT22;56152;49.996;18.980;2023-08-08T16:36:12;17.50;79.20
43647;DHT22;56152;49.996;18.980;2023-08-08T16:41:17;17.50;79.60
43647;DHT22;56152;49.996;18.980;2023-08-08T16:46:19;17.50;79.50
43647;DHT22;56152;49.996;18.980;2023-08-08T16:51:21;17.50;80.10
43647;DHT22;56152;49.996;18.980;2023-08-08T16:56:28;17.50;80.40
43647;DHT22;56152;49.996;18.980;2023-08-08T17:01:31;17.40;80.70
43647;DHT22;56152;49.996;18.980;2023-08-08T17:06:33;17.30;81.70
43647;DHT22;56152;49.996;18.980;2023-08-08T17:11:38;17.30;81.80
43647;DHT22;56152;49.996;18.980;2023-08-08T17:16:41;17.10;82.50
43647;DHT22;56152;49.996;18.980;2023-08-08T17:21:46;17.00;83.00
43647;DHT22;56152;49.996;18.980;2023-08-08T17:27:05;16.90;83.50
43647;DHT22;56152;49.996;18.980;2023-08-08T17:32:11;16.80;84.00
43647;DHT22;56152;49.996;18.980;2023-08-08T17:37:14;16.70;84.80
43647;DHT22;56152;49.996;18.980;2023-08-08T17:54:09;16.30;87.20
43647;DHT22;56152;49.996;18.980;2023-08-08T17:59:27;16.10;87.90
43647;DHT22;56152;49.996;18.980;2023-08-08T18:04:31;15.90;88.30
43647;DHT22;56152;49.996;18.980;2023-08-08T18:09:36;15.70;88.60
43647;DHT22;56152;49.996;18.980;2023-08-08T18:14:41;15.60;89.00
43647;DHT22;56152;49.996;18.980;2023-08-08T18:19:43;15.40;89.20
43647;DHT22;56152;49.996;18.980;2023-08-08T18:24:47;15.20;89.70
43647;DHT22;56152;49.996;18.980;2023-08-08T18:29:49;15.00;90.00
43647;DHT22;56152;49.996;18.980;2023-08-08T18:34:51;14.90;90.20
43647;DHT22;56152;49.996;18.980;2023-08-08T18:51:57;14.60;90.40
43647;DHT22;56152;49.996;18.980;2023-08-08T18:57:13;14.50;90.50
43647;DHT22;56152;49.996;18.980;2023-08-08T19:02:19;14.30;90.60
43647;DHT22;56152;49.996;18.980;2023-08-08T19:07:36;14.30;90.70
43647;DHT22;56152;49.996;18.980;2023-08-08T19:12:39;14.20;90.90
43647;DHT22;56152;49.996;18.980;2023-08-08T19:17:56;14.20;91.10
43647;DHT22;56152;49.996;18.980;2023-08-08T19:29:29;14.30;91.10
43647;DHT22;56152;49.996;18.980;2023-08-08T19:34:55;14.30;91.00
43647;DHT22;56152;49.996;18.980;2023-08-08T19:40:17;14.20;91.10
43647;DHT22;56152;49.996;18.980;2023-08-08T19:45:21;14.10;91.10
43647;DHT22;56152;49.996;18.980;2023-08-08T19:50:23;14.10;91.20
43647;DHT22;56152;49.996;18.980;2023-08-08T19:55:27;14.00;91.30
43647;DHT22;56152;49.996;18.980;2023-08-08T20:00:33;14.00;91.40
43647;DHT22;56152;49.996;18.980;2023-08-08T20:05:36;13.90;91.40
43647;DHT22;56152;49.996;18.980;2023-08-08T20:10:38;13.80;91.50
43647;DHT22;56152;49.996;18.980;2023-08-08T20:15:46;13.80;91.80
43647;DHT22;56152;49.996;18.980;2023-08-08T20:20:48;13.80;91.50
43647;DHT22;56152;49.996;18.980;2023-08-08T20:25:52;13.90;91.60
43647;DHT22;56152;49.996;18.980;2023-08-08T20:30:57;13.90;91.50
43647;DHT22;56152;49.996;18.980;2023-08-08T20:35:59;14.00;91.50
43647;DHT22;56152;49.996;18.980;2023-08-08T20:41:02;14.00;91.50
43647;DHT22;56152;49.996;18.980;2023-08-08T20:46:07;14.10;91.50
43647;DHT22;56152;49.996;18.980;2023-08-08T20:51:11;14.10;91.50
43647;DHT22;56152;49.996;18.980;2023-08-08T20:56:16;14.10;91.50
43647;DHT22;56152;49.996;18.980;2023-08-08T21:01:33;14.10;91.50
43647;DHT22;56152;49.996;18.980;2023-08-08T21:06:38;14.20;91.50
43647;DHT22;56152;49.996;18.980;2023-08-08T21:11:40;14.20;91.60
43647;DHT22;56152;49.996;18.980;2023-08-08T21:16:44;14.30;91.70
43647;DHT22;56152;49.996;18.980;2023-08-08T21:21:46;14.20;91.90
43647;DHT22;56152;49.996;18.980;2023-08-08T21:26:50;14.10;92.00
43647;DHT22;56152;49.996;18.980;2023-08-08T21:31:54;14.10;92.20
43647;DHT22;56152;49.996;18.980;2023-08-08T21:36:56;13.90;92.50
43647;DHT22;56152;49.996;18.980;2023-08-08T21:41:58;13.70;92.80
43647;DHT22;56152;49.996;18.980;2023-08-08T21:47:05;13.70;93.10
43647;DHT22;56152;49.996;18.980;2023-08-08T21:52:07;13.60;93.40
43647;DHT22;56152;49.996;18.980;2023-08-08T21:57:09;13.60;93.50
43647;DHT22;56152;49.996;18.980;2023-08-08T22:02:14;13.60;93.70
43647;DHT22;56152;49.996;18.980;2023-08-08T22:07:16;13.60;93.80
43647;DHT22;56152;49.996;18.980;2023-08-08T22:12:20;13.50;94.10
43647;DHT22;56152;49.996;18.980;2023-08-08T22:17:24;13.50;94.20
43647;DHT22;56152;49.996;18.980;2023-08-08T22:22:26;13.40;94.30
43647;DHT22;56152;49.996;18.980;2023-08-08T22:27:35;13.40;94.50
43647;DHT22;56152;49.996;18.980;2023-08-08T22:32:40;13.30;94.60
43647;DHT22;56152;49.996;18.980;2023-08-08T22:37:42;13.30;94.70
43647;DHT22;56152;49.996;18.980;2023-08-08T22:42:44;13.30;94.80
43647;DHT22;56152;49.996;18.980;2023-08-08T22:47:49;13.20;94.90
43647;DHT22;56152;49.996;18.980;2023-08-08T22:52:51;13.10;94.90
43647;DHT22;56152;49.996;18.980;2023-08-08T22:57:53;13.10;95.00
43647;DHT22;56152;49.996;18.980;2023-08-08T23:03:11;12.90;95.00
43647;DHT22;56152;49.996;18.980;2023-08-08T23:08:13;12.80;95.30
43647;DHT22;56152;49.996;18.980;2023-08-08T23:13:15;12.80;95.30
43647;DHT22;56152;49.996;18.980;2023-08-08T23:18:19;12.80;95.30
43647;DHT22;56152;49.996;18.980;2023-08-08T23:23:22;12.80;95.40
43647;DHT22;56152;49.996;18.980;2023-08-08T23:28:25;12.90;95.40
43647;DHT22;56152;49.996;18.980;2023-08-08T23:33:31;12.90;95.70
43647;DHT22;56152;49.996;18.980;2023-08-08T23:38:36;13.00;95.50
43647;DHT22;56152;49.996;18.980;2023-08-08T23:43:39;13.00;95.80
43647;DHT22;56152;49.996;18.980;2023-08-08T23:48:42;13.10;95.60
43647;DHT22;56152;49.996;18.980;2023-08-08T23:53:47;13.10;95.50
43647;DHT22;56152;49.996;18.980;2023-08-08T23:58:50;13.10;95.50
